Time;durP1;ratioP1;P1;durP2;ratioP2;P2;SDS_P1;SDS_P2;PMS_P1;PMS_P2;Temp;Humidity;BMP_temperature;BMP_pressure;BME280_temperature;BME280_humidity;BME280_pressure;Samples;Min_cycle;Max_cycle;Signal;HPM_P1;HPM_P2
2022/03/22 00:04:04;;;;;;;48.60;20.20;;;;;;;;;;10282771;28;20026;-75
2022/03/22 00:09:04;;;;;;;46.15;19.98;;;;;;;;;;10283072;28;20165;-70
2022/03/22 00:14:08;;;;;;;50.03;22.00;;;;;;;;;;10282921;28;20081;-68
2022/03/22 00:19:08;;;;;;;37.88;18.42;;;;;;;;;;10282506;28;20117;-72
2022/03/22 00:24:09;;;;;;;40.07;17.33;;;;;;;;;;10282178;28;20027;-70
2022/03/22 00:29:09;;;;;;;40.65;18.85;;;;;;;;;;10282791;28;20015;-72
2022/03/22 00:34:13;;;;;;;46.40;19.70;;;;;;;;;;10282326;28;20144;-71
2022/03/22 00:39:13;;;;;;;38.83;18.95;;;;;;;;;;10288046;28;20115;-71
2022/03/22 00:44:14;;;;;;;40.05;18.50;;;;;;;;;;10289929;28;20510;-72
2022/03/22 00:49:14;;;;;;;37.13;16.05;;;;;;;;;;10289743;28;20037;-73
2022/03/22 00:54:14;;;;;;;37.67;17.77;;;;;;;;;;10290879;28;20108;-72
2022/03/22 01:04:35;;;;;;;37.40;18.55;;;;;;;;;;10290069;28;20022;-71
2022/03/22 01:09:35;;;;;;;40.88;20.20;;;;;;;;;;10288655;28;20566;-71
2022/03/22 01:14:35;;;;;;;42.13;18.65;;;;;;;;;;10288506;28;20053;-74
2022/03/22 01:19:37;;;;;;;42.40;19.08;;;;;;;;;;10288119;28;20029;-75
2022/03/22 01:24:37;;;;;;;40.63;20.63;;;;;;;;;;10289020;28;20031;-72
2022/03/22 01:29:37;;;;;;;41.20;16.97;;;;;;;;;;10289241;28;20027;-71
2022/03/22 01:34:38;;;;;;;41.53;17.73;;;;;;;;;;10304245;28;20066;-72
2022/03/22 01:39:38;;;;;;;39.83;18.60;;;;;;;;;;10288748;28;20034;-70
2022/03/22 01:44:38;;;;;;;31.92;16.92;;;;;;;;;;10303464;28;20413;-70
2022/03/22 01:49:41;;;;;;;44.00;17.48;;;;;;;;;;10286819;28;20405;-71
2022/03/22 01:54:41;;;;;;;42.40;17.30;;;;;;;;;;10288250;28;20035;-70
2022/03/22 01:59:42;;;;;;;31.30;15.27;;;;;;;;;;10288349;28;20031;-72
2022/03/22 02:10:02;;;;;;;35.00;16.95;;;;;;;;;;10288351;28;20085;-70
2022/03/22 02:15:03;;;;;;;33.65;15.40;;;;;;;;;;10286255;28;20110;-70
2022/03/22 02:20:03;;;;;;;30.52;13.98;;;;;;;;;;10286148;28;20409;-77
2022/03/22 02:25:04;;;;;;;30.33;14.73;;;;;;;;;;10296793;28;20026;-74
2022/03/22 02:30:04;;;;;;;36.15;15.07;;;;;;;;;;10285679;28;20039;-74
2022/03/22 02:35:05;;;;;;;31.17;16.40;;;;;;;;;;10287164;28;20501;-74
2022/03/22 02:40:07;;;;;;;31.45;15.98;;;;;;;;;;10285396;28;20106;-75
2022/03/22 02:45:07;;;;;;;27.63;14.73;;;;;;;;;;10286319;28;20049;-70
2022/03/22 02:50:08;;;;;;;26.23;14.82;;;;;;;;;;10285149;28;20110;-71
2022/03/22 02:55:09;;;;;;;33.40;16.27;;;;;;;;;;10285087;28;20011;-71
2022/03/22 03:00:11;;;;;;;35.00;17.25;;;;;;;;;;10300003;28;20632;-70
2022/03/22 03:05:11;;;;;;;32.90;18.02;;;;;;;;;;10285826;28;20088;-70
2022/03/22 03:10:12;;;;;;;28.90;15.13;;;;;;;;;;10300687;28;20080;-78
2022/03/22 03:15:12;;;;;;;35.70;16.23;;;;;;;;;;10284099;28;20026;-71
2022/03/22 03:20:12;;;;;;;41.03;18.27;;;;;;;;;;10283902;28;20029;-71
2022/03/22 03:25:13;;;;;;;38.87;18.60;;;;;;;;;;10284028;28;20250;-77
2022/03/22 03:30:13;;;;;;;35.08;17.58;;;;;;;;;;10283349;28;20050;-72
2022/03/22 03:35:14;;;;;;;55.10;27.63;;;;;;;;;;10284557;28;20037;-77
2022/03/22 03:40:14;;;;;;;44.92;21.60;;;;;;;;;;10284667;28;20109;-76
2022/03/22 03:50:33;;;;;;;51.65;22.65;;;;;;;;;;10284780;28;20031;-69
2022/03/22 03:55:34;;;;;;;49.90;25.25;;;;;;;;;;10284023;28;20023;-70
2022/03/22 04:00:35;;;;;;;49.20;24.27;;;;;;;;;;10299075;28;20018;-70
2022/03/22 04:05:35;;;;;;;56.57;25.57;;;;;;;;;;10282684;28;20023;-70
2022/03/22 04:10:35;;;;;;;58.30;27.60;;;;;;;;;;10284054;28;20041;-71
2022/03/22 04:15:36;;;;;;;52.17;25.02;;;;;;;;;;10291178;28;20027;-71
2022/03/22 04:20:36;;;;;;;50.00;24.57;;;;;;;;;;10290674;28;20206;-71
2022/03/22 04:25:37;;;;;;;41.80;19.90;;;;;;;;;;10290834;28;20031;-71
2022/03/22 04:35:56;;;;;;;61.08;30.17;;;;;;;;;;10331535;28;20034;-70
2022/03/22 04:40:57;;;;;;;59.17;26.83;;;;;;;;;;10308352;28;20026;-70
2022/03/22 04:45:57;;;;;;;78.38;35.05;;;;;;;;;;10299127;28;20014;-70
2022/03/22 04:56:48;;;;;;;73.15;31.92;;;;;;;;;;10245623;29;20486;-72
2022/03/22 05:01:50;;;;;;;51.90;27.55;;;;;;;;;;10273704;28;20027;-71
2022/03/22 05:06:51;;;;;;;62.78;29.45;;;;;;;;;;10293279;28;20030;-72
2022/03/22 05:11:51;;;;;;;69.20;30.65;;;;;;;;;;10303355;28;20026;-74
2022/03/22 05:16:51;;;;;;;55.83;29.60;;;;;;;;;;10328542;28;20031;-74
2022/03/22 05:21:52;;;;;;;69.40;32.07;;;;;;;;;;10322477;28;20548;-74
2022/03/22 05:26:53;;;;;;;58.47;29.85;;;;;;;;;;10306104;28;20022;-74
2022/03/22 05:31:53;;;;;;;52.53;26.77;;;;;;;;;;10291126;28;20055;-72
2022/03/22 05:36:54;;;;;;;54.25;21.63;;;;;;;;;;10286729;28;20514;-74
2022/03/22 05:41:54;;;;;;;57.17;20.97;;;;;;;;;;10283923;28;20448;-74
2022/03/22 05:46:56;;;;;;;42.33;20.73;;;;;;;;;;10283178;28;20069;-73
2022/03/22 05:51:57;;;;;;;47.75;20.83;;;;;;;;;;10284142;28;20023;-73
2022/03/22 05:56:57;;;;;;;48.65;21.02;;;;;;;;;;10286221;28;20023;-75
2022/03/22 06:01:58;;;;;;;39.90;18.20;;;;;;;;;;10302328;28;20027;-74
2022/03/22 06:07:00;;;;;;;44.37;16.43;;;;;;;;;;10288050;28;20031;-74
2022/03/22 06:12:00;;;;;;;46.17;16.15;;;;;;;;;;10301793;28;20480;-73
2022/03/22 06:17:01;;;;;;;55.92;16.27;;;;;;;;;;10325551;28;20029;-74
2022/03/22 06:22:01;;;;;;;38.03;17.10;;;;;;;;;;10324904;28;20072;-73
2022/03/22 06:27:02;;;;;;;50.70;20.00;;;;;;;;;;10324836;28;20014;-76
2022/03/22 06:32:04;;;;;;;53.45;22.15;;;;;;;;;;10325010;28;20116;-73
2022/03/22 06:37:05;;;;;;;60.10;21.02;;;;;;;;;;10325413;28;20030;-75
2022/03/22 06:42:05;;;;;;;36.05;16.48;;;;;;;;;;10325000;28;20057;-72
2022/03/22 06:47:06;;;;;;;34.15;11.57;;;;;;;;;;10324715;28;20014;-73
2022/03/22 06:52:06;;;;;;;21.92;10.52;;;;;;;;;;10308251;28;20068;-73
2022/03/22 06:57:06;;;;;;;18.77;8.50;;;;;;;;;;10324433;28;20022;-73
2022/03/22 07:02:10;;;;;;;28.87;11.13;;;;;;;;;;10323708;28;20282;-73
2022/03/22 07:07:10;;;;;;;25.67;10.63;;;;;;;;;;10323716;28;20424;-73
2022/03/22 07:12:10;;;;;;;17.90;8.97;;;;;;;;;;10324046;28;20031;-76
2022/03/22 07:17:11;;;;;;;21.67;9.90;;;;;;;;;;10324093;28;20069;-76
2022/03/22 07:22:11;;;;;;;16.00;8.37;;;;;;;;;;10307611;28;20025;-73
2022/03/22 07:27:11;;;;;;;17.73;8.43;;;;;;;;;;10323267;28;20022;-73
2022/03/22 07:32:11;;;;;;;19.73;8.85;;;;;;;;;;10322934;28;20065;-74
2022/03/22 07:37:14;;;;;;;20.73;10.23;;;;;;;;;;10323391;28;20037;-74
2022/03/22 07:42:14;;;;;;;18.73;10.52;;;;;;;;;;10322719;28;20172;-76
2022/03/22 07:47:15;;;;;;;21.90;10.27;;;;;;;;;;10322536;28;20519;-75
2022/03/22 07:57:34;;;;;;;;;;;;;;;;;;10325099;28;20053;-74
2022/03/22 08:02:36;;;;;;;23.75;10.60;;;;;;;;;;10322066;28;20004;-76
2022/03/22 08:07:37;;;;;;;22.40;9.65;;;;;;;;;;10322448;28;20400;-74
2022/03/22 08:12:37;;;;;;;26.00;10.35;;;;;;;;;;10329135;28;20042;-78
2022/03/22 08:17:39;;;;;;;29.07;10.80;;;;;;;;;;10322253;28;20033;-74
2022/03/22 08:22:50;;;;;;;19.13;9.88;;;;;;;;;;10322679;28;20027;-73
2022/03/22 08:27:51;;;;;;;21.77;10.07;;;;;;;;;;10324439;28;20110;-77
2022/03/22 08:32:52;;;;;;;26.33;12.00;;;;;;;;;;10321764;28;20050;-74
2022/03/22 08:37:53;;;;;;;22.48;10.70;;;;;;;;;;10322406;28;20096;-72
2022/03/22 08:42:55;;;;;;;24.02;12.00;;;;;;;;;;10322169;28;20463;-73
2022/03/22 08:47:55;;;;;;;30.45;11.57;;;;;;;;;;10322076;28;20006;-75
2022/03/22 08:52:56;;;;;;;20.67;11.03;;;;;;;;;;10320955;28;20045;-76
2022/03/22 08:57:57;;;;;;;20.42;11.55;;;;;;;;;;10322478;28;20160;-74
2022/03/22 09:02:58;;;;;;;32.35;11.25;;;;;;;;;;10329132;28;20113;-73
2022/03/22 09:08:00;;;;;;;23.47;11.07;;;;;;;;;;10328919;28;20029;-73
2022/03/22 09:13:01;;;;;;;21.58;10.45;;;;;;;;;;10328681;28;20360;-73
2022/03/22 09:18:02;;;;;;;24.17;9.88;;;;;;;;;;10328351;28;20034;-73
2022/03/22 09:23:02;;;;;;;19.35;10.68;;;;;;;;;;10329223;28;20429;-72
2022/03/22 09:28:05;;;;;;;16.20;7.95;;;;;;;;;;10328546;28;20033;-73
2022/03/22 09:33:07;;;;;;;13.35;8.18;;;;;;;;;;10328004;28;20054;-72
2022/03/22 09:38:08;;;;;;;14.07;7.93;;;;;;;;;;10327650;28;20026;-76
2022/03/22 09:43:08;;;;;;;23.50;8.13;;;;;;;;;;10327620;28;20022;-74
2022/03/22 09:48:09;;;;;;;15.48;7.72;;;;;;;;;;10310945;28;20033;-74
2022/03/22 09:53:11;;;;;;;21.10;8.50;;;;;;;;;;10327914;28;20489;-76
2022/03/22 09:58:11;;;;;;;17.50;7.50;;;;;;;;;;10328512;28;20113;-78
2022/03/22 10:03:19;;;;;;;19.85;7.50;;;;;;;;;;10326453;28;20435;-76
2022/03/22 10:08:19;;;;;;;19.80;6.32;;;;;;;;;;10326111;28;20517;-75
2022/03/22 10:13:19;;;;;;;15.52;7.13;;;;;;;;;;10325800;28;20022;-73
2022/03/22 10:18:23;;;;;;;15.47;6.50;;;;;;;;;;10325320;28;20037;-74
2022/03/22 10:23:23;;;;;;;13.07;6.15;;;;;;;;;;10325684;28;20025;-76
2022/03/22 10:28:23;;;;;;;13.77;5.63;;;;;;;;;;10327103;28;20045;-76
2022/03/22 10:33:23;;;;;;;16.27;6.30;;;;;;;;;;10324940;28;20050;-72
2022/03/22 10:38:24;;;;;;;11.10;5.50;;;;;;;;;;10327070;28;20045;-74
2022/03/22 10:43:26;;;;;;;15.35;5.13;;;;;;;;;;10324933;28;20014;-73
2022/03/22 10:48:32;;;;;;;10.43;5.70;;;;;;;;;;10326025;28;20042;-73
2022/03/22 10:53:34;;;;;;;8.65;4.70;;;;;;;;;;10324903;28;20098;-80
2022/03/22 10:58:37;;;;;;;10.85;5.75;;;;;;;;;;10324536;28;20120;-75
2022/03/22 11:03:38;;;;;;;7.65;4.75;;;;;;;;;;10324354;28;20149;-75
2022/03/22 11:08:41;;;;;;;12.02;4.47;;;;;;;;;;10308444;28;20026;-73
2022/03/22 11:13:41;;;;;;;10.75;4.53;;;;;;;;;;10307786;28;20027;-74
2022/03/22 11:18:41;;;;;;;8.65;4.72;;;;;;;;;;10323848;28;20027;-75
2022/03/22 11:23:44;;;;;;;10.73;4.93;;;;;;;;;;10323119;28;20022;-75
2022/03/22 11:28:45;;;;;;;7.32;4.00;;;;;;;;;;10323029;28;20065;-73
2022/03/22 11:39:05;;;;;;;14.75;6.03;;;;;;;;;;10325051;28;20034;-75
2022/03/22 11:44:10;;;;;;;10.55;6.32;;;;;;;;;;10322603;28;20045;-75
2022/03/22 11:49:11;;;;;;;16.85;7.05;;;;;;;;;;10323031;28;20104;-74
2022/03/22 11:54:12;;;;;;;17.17;6.50;;;;;;;;;;10322662;28;20128;-80
2022/03/22 11:59:14;;;;;;;16.58;7.15;;;;;;;;;;10322282;28;20015;-78
2022/03/22 12:04:17;;;;;;;18.38;6.88;;;;;;;;;;10322856;28;20024;-73
2022/03/22 12:09:18;;;;;;;13.88;7.22;;;;;;;;;;10323935;28;20138;-75
2022/03/22 12:14:31;;;;;;;13.10;7.60;;;;;;;;;;10322630;28;20477;-77
2022/03/22 12:19:32;;;;;;;14.35;6.82;;;;;;;;;;10322414;28;20031;-74
2022/03/22 12:24:34;;;;;;;13.05;6.63;;;;;;;;;;10322385;28;20030;-75
2022/03/22 12:29:38;;;;;;;16.67;7.20;;;;;;;;;;10322089;28;20128;-73
2022/03/22 12:34:39;;;;;;;19.55;7.57;;;;;;;;;;10326816;28;20064;-79
2022/03/22 12:39:43;;;;;;;14.73;8.50;;;;;;;;;;10330202;28;20034;-75
2022/03/22 12:44:45;;;;;;;12.48;7.65;;;;;;;;;;10313716;28;20464;-78
2022/03/22 12:49:45;;;;;;;12.90;6.50;;;;;;;;;;10329508;28;20416;-74
2022/03/22 12:54:46;;;;;;;19.63;7.15;;;;;;;;;;10329541;28;20030;-71
2022/03/22 12:59:46;;;;;;;17.67;7.35;;;;;;;;;;10329236;28;20432;-75
2022/03/22 13:04:49;;;;;;;16.95;6.53;;;;;;;;;;10328822;28;20026;-73
2022/03/22 13:15:10;;;;;;;10.57;6.15;;;;;;;;;;10328134;28;20476;-73
2022/03/22 13:20:17;;;;;;;14.70;7.05;;;;;;;;;;10290791;28;20022;-76
2022/03/22 13:25:23;;;;;;;15.68;7.82;;;;;;;;;;10324919;28;20421;-73
2022/03/22 13:30:24;;;;;;;13.45;7.47;;;;;;;;;;10287098;28;20043;-76
2022/03/22 13:35:24;;;;;;;22.23;8.13;;;;;;;;;;10320191;28;20035;-70
2022/03/22 13:40:24;;;;;;;15.38;8.00;;;;;;;;;;10328050;28;20018;-74
2022/03/22 13:45:25;;;;;;;22.00;9.93;;;;;;;;;;10326694;28;20018;-71
2022/03/22 13:50:27;;;;;;;14.13;8.02;;;;;;;;;;10327060;28;20263;-75
2022/03/22 13:55:29;;;;;;;16.65;7.78;;;;;;;;;;10327982;28;20560;-71
2022/03/22 14:00:33;;;;;;;12.90;7.60;;;;;;;;;;10327541;28;20026;-72
2022/03/22 14:05:34;;;;;;;17.63;7.38;;;;;;;;;;10326177;28;20015;-73
2022/03/22 14:10:35;;;;;;;16.90;8.38;;;;;;;;;;10326047;28;20105;-72
2022/03/22 14:15:36;;;;;;;14.82;8.43;;;;;;;;;;10326407;28;20029;-79
2022/03/22 14:20:36;;;;;;;11.68;7.47;;;;;;;;;;10325779;28;20428;-74
2022/03/22 14:25:37;;;;;;;15.82;7.88;;;;;;;;;;10317146;28;20405;-71
2022/03/22 14:30:38;;;;;;;16.73;8.67;;;;;;;;;;10301833;28;20054;-73
2022/03/22 14:35:47;;;;;;;12.60;7.63;;;;;;;;;;10301501;28;20031;-72
2022/03/22 14:40:49;;;;;;;21.85;8.52;;;;;;;;;;10287120;28;20033;-72
2022/03/22 14:45:50;;;;;;;18.67;9.63;;;;;;;;;;10303552;28;20031;-76
2022/03/22 14:50:51;;;;;;;20.13;9.82;;;;;;;;;;10325292;28;20116;-71
2022/03/22 14:55:52;;;;;;;19.35;7.82;;;;;;;;;;10324351;28;20554;-71
2022/03/22 15:00:54;;;;;;;15.15;8.20;;;;;;;;;;10324033;28;20032;-76
2022/03/22 15:05:59;;;;;;;23.08;9.18;;;;;;;;;;10300625;28;20019;-71
2022/03/22 15:10:59;;;;;;;17.58;8.30;;;;;;;;;;10283558;28;20037;-71
2022/03/22 15:16:04;;;;;;;19.65;9.98;;;;;;;;;;10295139;28;20520;-71
2022/03/22 15:21:06;;;;;;;16.38;7.85;;;;;;;;;;10283617;28;20037;-76
2022/03/22 15:26:06;;;;;;;19.77;7.60;;;;;;;;;;10283068;28;20026;-75
2022/03/22 15:31:11;;;;;;;19.55;7.07;;;;;;;;;;10282919;28;20043;-74
2022/03/22 15:36:11;;;;;;;14.95;7.00;;;;;;;;;;10299093;28;20033;-77
2022/03/22 15:41:11;;;;;;;14.23;7.13;;;;;;;;;;10329549;28;20037;-71
2022/03/22 15:46:12;;;;;;;12.00;6.72;;;;;;;;;;10314473;28;20386;-73
2022/03/22 15:51:14;;;;;;;11.10;5.53;;;;;;;;;;10281869;28;20030;-73
2022/03/22 15:56:14;;;;;;;13.90;6.32;;;;;;;;;;10337636;28;20092;-76
2022/03/22 16:01:14;;;;;;;11.63;6.13;;;;;;;;;;10322628;28;20083;-73
2022/03/22 16:06:15;;;;;;;16.52;6.43;;;;;;;;;;10322552;28;20117;-74
2022/03/22 16:11:15;;;;;;;12.13;6.57;;;;;;;;;;10335625;28;20037;-76
2022/03/22 16:16:16;;;;;;;11.57;5.93;;;;;;;;;;10337008;28;20018;-74
2022/03/22 16:21:17;;;;;;;14.48;6.32;;;;;;;;;;10336588;28;20088;-74
2022/03/22 16:26:21;;;;;;;19.57;6.43;;;;;;;;;;10335633;28;20088;-77
2022/03/22 16:31:21;;;;;;;15.85;6.60;;;;;;;;;;10317096;28;20050;-78
2022/03/22 16:41:41;;;;;;;22.52;7.15;;;;;;;;;;10335776;28;20273;-71
2022/03/22 16:46:41;;;;;;;26.13;5.70;;;;;;;;;;10336173;28;20034;-71
2022/03/22 16:51:41;;;;;;;31.17;8.40;;;;;;;;;;10334828;28;20034;-72
2022/03/22 16:56:42;;;;;;;40.17;7.05;;;;;;;;;;10310714;28;20546;-73
2022/03/22 17:01:42;;;;;;;23.20;6.40;;;;;;;;;;10314507;28;20022;-71
2022/03/22 17:06:43;;;;;;;62.63;6.60;;;;;;;;;;10308011;23;20222;-85
2022/03/22 17:11:43;;;;;;;60.17;7.88;;;;;;;;;;10290941;28;20035;-90
2022/03/22 17:16:47;;;;;;;43.25;5.72;;;;;;;;;;10291049;28;20018;-91
2022/03/22 17:21:52;;;;;;;34.53;5.53;;;;;;;;;;10284816;28;20034;-88
2022/03/22 17:27:02;;;;;;;33.30;5.93;;;;;;;;;;10292154;28;20078;-88
2022/03/22 17:32:03;;;;;;;45.13;7.35;;;;;;;;;;10281638;28;20026;-88
2022/03/22 17:37:06;;;;;;;47.92;7.07;;;;;;;;;;10295681;28;20110;-88
2022/03/22 17:42:10;;;;;;;34.13;5.55;;;;;;;;;;10281355;28;20860;-88
2022/03/22 17:47:14;;;;;;;31.98;5.22;;;;;;;;;;10297376;28;20421;-87
2022/03/22 17:52:18;;;;;;;28.88;5.45;;;;;;;;;;10280010;28;20097;-88
2022/03/22 17:57:18;;;;;;;33.15;5.78;;;;;;;;;;10294789;28;20023;-88
2022/03/22 18:02:19;;;;;;;23.43;6.63;;;;;;;;;;10280828;28;20031;-87
2022/03/22 18:07:20;;;;;;;39.38;5.63;;;;;;;;;;10279463;28;20313;-84
2022/03/22 18:12:21;;;;;;;38.33;5.83;;;;;;;;;;10279858;28;20035;-82
2022/03/22 18:17:22;;;;;;;28.67;4.45;;;;;;;;;;10281698;28;20031;-82
2022/03/22 18:22:34;;;;;;;35.08;4.68;;;;;;;;;;10280113;28;20451;-83
2022/03/22 18:27:35;;;;;;;18.17;3.92;;;;;;;;;;10279181;28;20124;-83
2022/03/22 18:32:39;;;;;;;15.93;4.63;;;;;;;;;;10277816;28;20395;-82
2022/03/22 18:37:43;;;;;;;31.40;5.75;;;;;;;;;;10278323;28;20121;-82
2022/03/22 18:42:44;;;;;;;13.68;3.72;;;;;;;;;;10294212;28;20038;-83
2022/03/22 18:47:46;;;;;;;21.15;3.97;;;;;;;;;;10277351;28;20118;-83
2022/03/22 18:52:48;;;;;;;28.33;7.00;;;;;;;;;;10278353;28;20034;-83
2022/03/22 18:57:53;;;;;;;49.80;7.97;;;;;;;;;;10277860;28;20023;-82
2022/03/22 19:02:54;;;;;;;33.50;6.88;;;;;;;;;;10277897;28;20059;-84
2022/03/22 19:07:56;;;;;;;36.33;7.90;;;;;;;;;;10280958;28;20035;-82
2022/03/22 19:12:57;;;;;;;28.48;6.85;;;;;;;;;;10279640;28;20514;-82
2022/03/22 19:17:58;;;;;;;34.53;6.78;;;;;;;;;;10275803;28;20022;-83
2022/03/22 19:22:59;;;;;;;22.52;5.90;;;;;;;;;;10277247;28;20477;-86
2022/03/22 19:28:00;;;;;;;34.97;6.63;;;;;;;;;;10277261;28;20027;-87
2022/03/22 19:33:06;;;;;;;27.45;5.78;;;;;;;;;;10276094;28;20023;-87
2022/03/22 19:38:10;;;;;;;27.55;6.05;;;;;;;;;;10292137;28;20030;-85
2022/03/22 19:43:11;;;;;;;24.63;6.85;;;;;;;;;;10274471;28;20054;-86
2022/03/22 19:48:14;;;;;;;21.23;5.82;;;;;;;;;;10290571;28;20045;-86
2022/03/22 19:53:17;;;;;;;20.45;7.03;;;;;;;;;;10290274;28;20507;-86
2022/03/22 19:58:20;;;;;;;26.45;6.95;;;;;;;;;;10277552;28;20470;-87
2022/03/22 20:03:21;;;;;;;19.95;5.00;;;;;;;;;;10305292;23;20207;-79
2022/03/22 20:08:21;;;;;;;13.82;3.95;;;;;;;;;;10318703;28;20029;-74
2022/03/22 20:13:21;;;;;;;14.77;4.50;;;;;;;;;;10304002;28;20481;-74
2022/03/22 20:18:22;;;;;;;17.88;3.80;;;;;;;;;;10315859;28;20037;-73
2022/03/22 20:23:23;;;;;;;17.85;3.63;;;;;;;;;;10318554;28;20408;-73
2022/03/22 20:28:23;;;;;;;6.78;2.60;;;;;;;;;;10318144;28;20031;-74
2022/03/22 20:33:24;;;;;;;17.83;4.10;;;;;;;;;;10319267;28;20022;-74
2022/03/22 20:38:25;;;;;;;17.48;4.78;;;;;;;;;;10320981;28;20015;-72
2022/03/22 20:43:25;;;;;;;19.58;4.55;;;;;;;;;;10322147;28;20371;-73
2022/03/22 20:48:27;;;;;;;12.48;3.10;;;;;;;;;;10319913;28;20022;-74
2022/03/22 20:53:27;;;;;;;9.73;3.42;;;;;;;;;;10322458;28;20551;-75
2022/03/22 21:03:46;;;;;;;;;;;;;;;;;;10329705;28;20508;-70
2022/03/22 21:08:46;;;;;;;14.65;3.83;;;;;;;;;;10328751;28;19906;-72
2022/03/22 21:13:47;;;;;;;15.60;4.20;;;;;;;;;;10328112;28;20105;-71
2022/03/22 21:18:49;;;;;;;12.55;3.70;;;;;;;;;;10327085;28;20022;-71
2022/03/22 21:23:50;;;;;;;15.02;3.90;;;;;;;;;;10306063;28;20469;-71
2022/03/22 21:28:51;;;;;;;10.88;4.35;;;;;;;;;;10315531;28;20032;-73
2022/03/22 21:33:51;;;;;;;12.73;3.40;;;;;;;;;;10325815;28;20104;-71
2022/03/22 21:38:51;;;;;;;9.48;3.58;;;;;;;;;;10324096;28;20077;-74
2022/03/22 21:43:54;;;;;;;9.47;2.60;;;;;;;;;;10324863;28;20024;-71
2022/03/22 21:48:54;;;;;;;5.82;3.38;;;;;;;;;;10323839;28;20069;-73
2022/03/22 21:53:57;;;;;;;10.63;2.47;;;;;;;;;;10324584;28;20027;-75
2022/03/22 21:58:57;;;;;;;6.63;2.35;;;;;;;;;;10323932;28;20635;-73
2022/03/22 22:03:58;;;;;;;7.90;2.90;;;;;;;;;;10323346;28;20046;-71
2022/03/22 22:08:58;;;;;;;6.40;2.50;;;;;;;;;;10322723;28;20077;-75
2022/03/22 22:13:59;;;;;;;4.93;2.28;;;;;;;;;;10322379;28;20365;-71
2022/03/22 22:18:59;;;;;;;11.18;2.65;;;;;;;;;;10322527;28;20026;-71
2022/03/22 22:23:59;;;;;;;5.05;2.35;;;;;;;;;;10322565;28;20113;-71
2022/03/22 22:28:59;;;;;;;8.98;2.17;;;;;;;;;;10323359;28;20512;-71
2022/03/22 22:34:00;;;;;;;4.03;1.60;;;;;;;;;;10320575;28;20030;-71
2022/03/22 22:39:00;;;;;;;3.97;1.95;;;;;;;;;;10322759;28;20026;-71
2022/03/22 22:44:00;;;;;;;6.18;2.30;;;;;;;;;;10323180;28;20071;-69
2022/03/22 22:49:01;;;;;;;7.45;2.13;;;;;;;;;;10321625;28;20117;-71
2022/03/22 22:54:02;;;;;;;7.50;2.30;;;;;;;;;;10319908;28;20026;-72
2022/03/22 22:59:02;;;;;;;8.55;2.47;;;;;;;;;;10320389;28;20032;-72
2022/03/22 23:04:03;;;;;;;5.47;2.10;;;;;;;;;;10319597;28;20069;-71
2022/03/22 23:14:23;;;;;;;10.45;2.40;;;;;;;;;;10322211;28;20522;-71
2022/03/22 23:19:23;;;;;;;6.07;1.98;;;;;;;;;;10320114;28;20117;-72
2022/03/22 23:24:23;;;;;;;3.63;1.90;;;;;;;;;;10306572;28;20026;-73
2022/03/22 23:29:25;;;;;;;3.30;1.83;;;;;;;;;;10323660;28;20397;-71
2022/03/22 23:34:26;;;;;;;6.82;2.28;;;;;;;;;;10317799;28;20037;-73
2022/03/22 23:39:26;;;;;;;7.53;2.17;;;;;;;;;;10299830;28;20034;-72
2022/03/22 23:44:30;;;;;;;6.18;1.77;;;;;;;;;;10283308;28;20034;-72
2022/03/22 23:49:31;;;;;;;7.07;2.72;;;;;;;;;;10283337;28;20033;-75
2022/03/22 23:54:32;;;;;;;5.85;1.95;;;;;;;;;;10284435;28;20370;-71
2022/03/22 23:59:33;;;;;;;11.45;1.90;;;;;;;;;;10283238;28;20455;-72
